Cowling, Illinois
Current Conditions -  °F | °C
As of 1:55 PM on Wednesday 17 Dec 2014 (Local Time) from KAJG Reporting Station
Overcast Overcast  
Wind Chill: 28°   Ceiling: 1900
Heat Index: 34°   Visibility: 10mi
Dew Point: 27°   Wind: 7mph
Humidity: 75%   Direction: 290°WNW
Pressure: 30.28"   Gusts: NA
Location:  38.4145°N, 87.8638°W
Report Text: KAJG 171955Z AUTO 29006KT 10SM OVC019 01/M03 A3028 RMK AO2
Loading
Personal Weather Stations






























Interactive Weather Map New forecast layout! Learn more

10-Day Weather Forecast

Advertisements
Track Severe Weather on mobile